Time;durP1;ratioP1;P1;durP2;ratioP2;P2;SDS_P1;SDS_P2;PMS_P1;PMS_P2;Temp;Humidity;BMP_temperature;BMP_pressure;BME280_temperature;BME280_humidity;BME280_pressure;Samples;Min_cycle;Max_cycle;Signal;HPM_P1;HPM_P2
2023/05/31 00:01:14;;;;;;;;;;;20.60;41.50;;;;;;5111889;28;19920;-58
2023/05/31 00:03:43;;;;;;;;;;;20.60;41.50;;;;;;5094611;28;19970;-58
2023/05/31 00:06:10;;;;;;;;;;;20.60;41.50;;;;;;5095148;28;19920;-58
2023/05/31 00:08:36;;;;;;;;;;;20.60;41.50;;;;;;5094799;28;19931;-59
2023/05/31 00:11:03;;;;;;;;;;;20.60;41.50;;;;;;5095196;28;19965;-59
2023/05/31 00:13:30;;;;;;;;;;;20.50;41.40;;;;;;5111259;28;19981;-58
2023/05/31 00:15:57;;;;;;;;;;;20.60;41.50;;;;;;5111351;28;19920;-58
2023/05/31 00:18:24;;;;;;;;;;;20.60;41.50;;;;;;5094291;28;19920;-58
2023/05/31 00:20:52;;;;;;;;;;;20.60;41.50;;;;;;5095046;28;19920;-59
2023/05/31 00:23:19;;;;;;;;;;;20.60;41.50;;;;;;5095416;28;19920;-59
2023/05/31 00:25:45;;;;;;;;;;;20.50;41.40;;;;;;5095678;28;19920;-59
2023/05/31 00:28:12;;;;;;;;;;;20.60;41.50;;;;;;5094337;28;19924;-59
2023/05/31 00:30:39;;;;;;;;;;;20.60;41.50;;;;;;5094272;28;19993;-59
2023/05/31 00:33:05;;;;;;;;;;;20.50;41.40;;;;;;5094979;28;19927;-59
2023/05/31 00:35:32;;;;;;;;;;;20.60;41.50;;;;;;5111083;28;20393;-59
2023/05/31 00:38:01;;;;;;;;;;;20.50;41.40;;;;;;5093967;28;19927;-60
2023/05/31 00:40:28;;;;;;;;;;;20.50;41.40;;;;;;5093358;28;19920;-58
2023/05/31 00:42:55;;;;;;;;;;;20.60;41.50;;;;;;5111702;28;19927;-60
2023/05/31 00:45:22;;;;;;;;;;;20.50;41.40;;;;;;5111812;28;19924;-59
2023/05/31 00:47:49;;;;;;;;;;;20.50;41.40;;;;;;5110797;28;19920;-59
2023/05/31 00:50:15;;;;;;;;;;;20.50;41.50;;;;;;5109108;28;19920;-60
2023/05/31 00:52:43;;;;;;;;;;;20.50;41.50;;;;;;5095011;28;19935;-60
2023/05/31 00:55:11;;;;;;;;;;;20.50;41.50;;;;;;5110743;28;19920;-59
2023/05/31 00:57:38;;;;;;;;;;;20.50;41.50;;;;;;5108840;28;19920;-59
2023/05/31 01:00:05;;;;;;;;;;;20.50;41.50;;;;;;5094585;28;20363;-59
2023/05/31 01:02:32;;;;;;;;;;;20.50;41.50;;;;;;5110853;28;19924;-59
2023/05/31 01:05:00;;;;;;;;;;;20.50;41.50;;;;;;5110568;28;20422;-59
2023/05/31 01:07:26;;;;;;;;;;;20.50;41.50;;;;;;5094010;28;19920;-59
2023/05/31 01:09:53;;;;;;;;;;;20.50;41.50;;;;;;5094232;28;19920;-59
2023/05/31 01:12:23;;;;;;;;;;;20.50;41.50;;;;;;5110960;28;20369;-59
2023/05/31 01:14:56;;;;;;;;;;;20.50;41.50;;;;;;5092073;28;19927;-59
2023/05/31 01:17:29;;;;;;;;;;;20.50;41.50;;;;;;5093598;28;19927;-59
2023/05/31 01:19:57;;;;;;;;;;;20.50;41.50;;;;;;5110937;28;19942;-59
2023/05/31 01:22:29;;;;;;;;;;;20.50;41.50;;;;;;5094539;28;19928;-60
2023/05/31 01:25:07;;;;;;;;;;;20.50;41.50;;;;;;5110826;28;19924;-60
2023/05/31 01:27:35;;;;;;;;;;;20.50;41.50;;;;;;5093185;28;19928;-60
2023/05/31 01:30:02;;;;;;;;;;;20.50;41.50;;;;;;5093419;28;19924;-59
2023/05/31 01:32:29;;;;;;;;;;;20.50;41.50;;;;;;5092674;28;19935;-60
2023/05/31 01:34:56;;;;;;;;;;;20.50;41.60;;;;;;5092166;28;19920;-59
2023/05/31 01:37:22;;;;;;;;;;;20.50;41.60;;;;;;5109388;28;19928;-59
2023/05/31 01:39:51;;;;;;;;;;;20.50;41.50;;;;;;5105552;28;19966;-59
2023/05/31 01:42:18;;;;;;;;;;;20.50;41.60;;;;;;5092250;28;19920;-59
2023/05/31 01:44:48;;;;;;;;;;;20.50;41.60;;;;;;5091110;28;19923;-59
2023/05/31 01:47:14;;;;;;;;;;;20.50;41.60;;;;;;5105809;28;19926;-58
2023/05/31 01:49:41;;;;;;;;;;;20.50;41.60;;;;;;5090950;28;19920;-59
2023/05/31 01:52:11;;;;;;;;;;;20.50;41.60;;;;;;5090446;28;19969;-60
2023/05/31 01:54:38;;;;;;;;;;;20.50;41.60;;;;;;5105570;28;19928;-59
2023/05/31 01:57:05;;;;;;;;;;;20.50;41.60;;;;;;5107015;28;19931;-60
2023/05/31 01:59:32;;;;;;;;;;;20.50;41.60;;;;;;5089702;28;19920;-59
2023/05/31 02:02:00;;;;;;;;;;;20.50;41.60;;;;;;5106158;28;19921;-59
2023/05/31 02:04:27;;;;;;;;;;;20.50;41.60;;;;;;5103026;28;19920;-59
2023/05/31 02:06:54;;;;;;;;;;;20.50;41.60;;;;;;5090218;28;19986;-59
2023/05/31 02:09:21;;;;;;;;;;;20.50;41.60;;;;;;5090225;28;19920;-58
2023/05/31 02:11:48;;;;;;;;;;;20.50;41.60;;;;;;5089856;28;19920;-60
2023/05/31 02:14:14;;;;;;;;;;;20.40;41.50;;;;;;5109638;28;19920;-59
2023/05/31 02:16:41;;;;;;;;;;;20.40;41.50;;;;;;5112650;28;19920;-59
2023/05/31 02:19:13;;;;;;;;;;;20.50;41.60;;;;;;5097655;28;19920;-58
2023/05/31 02:21:40;;;;;;;;;;;20.50;41.60;;;;;;5097793;28;20222;-59
2023/05/31 02:24:07;;;;;;;;;;;20.50;41.60;;;;;;5097624;28;19920;-59
2023/05/31 02:26:34;;;;;;;;;;;20.50;41.70;;;;;;5111522;28;19920;-59
2023/05/31 02:29:01;;;;;;;;;;;20.40;41.50;;;;;;5097211;28;19920;-59
2023/05/31 02:31:27;;;;;;;;;;;20.50;41.60;;;;;;5097834;28;19924;-60
2023/05/31 02:33:54;;;;;;;;;;;20.50;41.70;;;;;;5113189;28;19920;-59
2023/05/31 02:36:23;;;;;;;;;;;20.50;41.70;;;;;;5096422;28;19970;-59
2023/05/31 02:38:50;;;;;;;;;;;20.40;41.60;;;;;;5113328;28;19970;-59
2023/05/31 02:41:16;;;;;;;;;;;20.40;41.60;;;;;;5093918;28;19920;-60
2023/05/31 02:43:43;;;;;;;;;;;20.40;41.60;;;;;;5097395;28;20430;-59
2023/05/31 02:46:10;;;;;;;;;;;20.40;41.60;;;;;;5096427;28;19920;-60
2023/05/31 02:48:36;;;;;;;;;;;20.40;41.60;;;;;;5112994;28;19919;-60
2023/05/31 02:51:03;;;;;;;;;;;20.40;41.60;;;;;;5097272;28;19924;-59
2023/05/31 02:53:32;;;;;;;;;;;20.40;41.60;;;;;;5096177;28;20007;-59
2023/05/31 02:55:58;;;;;;;;;;;20.40;41.60;;;;;;5097294;28;19924;-59
2023/05/31 02:58:25;;;;;;;;;;;20.40;41.60;;;;;;5096331;28;19920;-59
2023/05/31 03:00:52;;;;;;;;;;;20.40;41.60;;;;;;5110744;28;19920;-60
2023/05/31 03:03:19;;;;;;;;;;;20.40;41.60;;;;;;5111582;28;20313;-59
2023/05/31 03:05:45;;;;;;;;;;;20.40;41.60;;;;;;5096334;28;19927;-58
2023/05/31 03:08:12;;;;;;;;;;;20.40;41.60;;;;;;5097339;28;19920;-58
2023/05/31 03:10:40;;;;;;;;;;;20.40;41.60;;;;;;5112738;28;20479;-59
2023/05/31 03:13:07;;;;;;;;;;;20.40;41.60;;;;;;5113520;28;19926;-59
2023/05/31 03:15:35;;;;;;;;;;;20.40;41.60;;;;;;5097181;28;19931;-59
2023/05/31 03:18:02;;;;;;;;;;;20.40;41.70;;;;;;5111080;28;19920;-59
2023/05/31 03:20:30;;;;;;;;;;;20.40;41.60;;;;;;5094870;28;19934;-59
2023/05/31 03:22:57;;;;;;;;;;;20.40;42.20;;;;;;5092443;28;20297;-59
2023/05/31 03:25:24;;;;;;;;;;;20.40;41.60;;;;;;5092676;28;19943;-59
2023/05/31 03:27:52;;;;;;;;;;;20.40;41.60;;;;;;5089526;28;20261;-59
2023/05/31 03:30:19;;;;;;;;;;;20.40;41.60;;;;;;5092875;28;19921;-59
2023/05/31 03:32:45;;;;;;;;;;;20.40;41.70;;;;;;5076324;28;19950;-59
2023/05/31 03:35:12;;;;;;;;;;;20.40;41.70;;;;;;5097334;28;20366;-59
2023/05/31 03:37:39;;;;;;;;;;;20.40;41.60;;;;;;5109122;28;19924;-58
2023/05/31 03:40:06;;;;;;;;;;;20.40;41.70;;;;;;5109653;28;20480;-58
2023/05/31 03:42:33;;;;;;;;;;;20.40;41.60;;;;;;5092855;28;19927;-59
2023/05/31 03:45:01;;;;;;;;;;;20.40;41.70;;;;;;5093070;28;19973;-59
2023/05/31 03:47:28;;;;;;;;;;;20.40;41.70;;;;;;5095108;28;20022;-59
2023/05/31 03:49:55;;;;;;;;;;;20.40;41.70;;;;;;5093212;28;20320;-59
2023/05/31 03:52:21;;;;;;;;;;;20.40;41.70;;;;;;5094681;28;19950;-60
2023/05/31 03:54:48;;;;;;;;;;;20.40;41.70;;;;;;5090796;28;19927;-58
2023/05/31 03:57:15;;;;;;;;;;;20.40;41.70;;;;;;5092665;28;19927;-59
2023/05/31 03:59:42;;;;;;;;;;;20.40;41.70;;;;;;5094646;28;19985;-59
2023/05/31 04:02:10;;;;;;;;;;;20.40;41.70;;;;;;5095210;28;19920;-60
2023/05/31 04:04:36;;;;;;;;;;;20.40;41.70;;;;;;5111571;28;19927;-60
2023/05/31 04:07:03;;;;;;;;;;;20.40;41.70;;;;;;5090909;28;19920;-59
2023/05/31 04:09:30;;;;;;;;;;;20.40;41.80;;;;;;5086274;28;20022;-58
2023/05/31 04:11:57;;;;;;;;;;;20.40;41.70;;;;;;5091937;28;19969;-60
2023/05/31 04:14:24;;;;;;;;;;;20.40;41.80;;;;;;5109409;28;19924;-60
2023/05/31 04:16:51;;;;;;;;;;;20.40;41.80;;;;;;5094767;28;19924;-59
2023/05/31 04:19:19;;;;;;;;;;;20.40;41.80;;;;;;5111137;28;20010;-59
2023/05/31 04:21:46;;;;;;;;;;;20.40;41.80;;;;;;5111297;28;19923;-60
2023/05/31 04:24:12;;;;;;;;;;;20.40;41.80;;;;;;5109464;28;19920;-59
2023/05/31 04:26:39;;;;;;;;;;;20.40;41.80;;;;;;5111825;28;19920;-60
2023/05/31 04:29:06;;;;;;;;;;;20.40;41.80;;;;;;5107382;28;19985;-60
2023/05/31 04:31:35;;;;;;;;;;;20.40;41.80;;;;;;5094155;28;19920;-60
2023/05/31 04:34:03;;;;;;;;;;;20.40;41.80;;;;;;5098424;28;19920;-60
2023/05/31 04:36:35;;;;;;;;;;;20.40;41.80;;;;;;5097658;28;20335;-58
2023/05/31 04:39:12;;;;;;;;;;;20.40;41.80;;;;;;5091048;28;19992;-59
2023/05/31 04:41:39;;;;;;;;;;;20.30;41.80;;;;;;5090207;28;19931;-59
2023/05/31 04:44:05;;;;;;;;;;;20.30;41.80;;;;;;5080313;28;19970;-59
2023/05/31 04:46:32;;;;;;;;;;;20.30;41.80;;;;;;5107732;28;19982;-58
2023/05/31 04:49:00;;;;;;;;;;;20.40;41.90;;;;;;5091895;28;19920;-59
2023/05/31 04:51:27;;;;;;;;;;;20.40;41.90;;;;;;5107277;28;20007;-59
2023/05/31 04:54:02;;;;;;;;;;;20.40;41.90;;;;;;5106610;28;20002;-60
2023/05/31 04:56:29;;;;;;;;;;;20.40;42.00;;;;;;5090974;28;19919;-59
2023/05/31 04:58:55;;;;;;;;;;;20.40;42.00;;;;;;5107368;28;19920;-57
2023/05/31 05:01:22;;;;;;;;;;;20.40;42.00;;;;;;5094603;27;19930;-59
2023/05/31 05:03:51;;;;;;;;;;;20.40;42.00;;;;;;5097553;28;19927;-58
2023/05/31 05:06:18;;;;;;;;;;;20.40;42.00;;;;;;5091461;28;19920;-55
2023/05/31 05:08:45;;;;;;;;;;;20.40;42.10;;;;;;5092487;28;19931;-59
2023/05/31 05:11:13;;;;;;;;;;;20.40;42.10;;;;;;5090402;28;19970;-59
2023/05/31 05:13:40;;;;;;;;;;;20.40;42.10;;;;;;5109578;27;19920;-58
2023/05/31 05:16:06;;;;;;;;;;;20.40;42.10;;;;;;5092345;28;19950;-60
2023/05/31 05:18:33;;;;;;;;;;;20.40;42.10;;;;;;5090150;28;20254;-59
2023/05/31 05:21:00;;;;;;;;;;;20.40;42.10;;;;;;5092031;28;19966;-59
2023/05/31 05:23:27;;;;;;;;;;;20.40;42.20;;;;;;5089554;28;19927;-59
2023/05/31 05:25:53;;;;;;;;;;;20.40;42.10;;;;;;5107697;28;19927;-60
2023/05/31 05:28:22;;;;;;;;;;;20.40;42.20;;;;;;5091819;28;19949;-60
2023/05/31 05:30:48;;;;;;;;;;;20.40;42.20;;;;;;5108381;28;19920;-59
2023/05/31 05:33:15;;;;;;;;;;;20.40;42.20;;;;;;5109146;28;19924;-59
2023/05/31 05:35:42;;;;;;;;;;;20.40;42.20;;;;;;5090935;28;19920;-60
2023/05/31 05:38:10;;;;;;;;;;;20.40;42.20;;;;;;5094172;28;19924;-60
2023/05/31 05:40:37;;;;;;;;;;;20.40;42.20;;;;;;5091235;28;19927;-60
2023/05/31 05:43:03;;;;;;;;;;;20.40;42.20;;;;;;5109986;28;19920;-60
2023/05/31 05:45:31;;;;;;;;;;;20.40;42.20;;;;;;5091383;28;19977;-60
2023/05/31 05:47:58;;;;;;;;;;;20.40;42.80;;;;;;5092976;28;19920;-60
2023/05/31 05:50:26;;;;;;;;;;;20.40;42.20;;;;;;5083512;28;19932;-60
2023/05/31 05:52:53;;;;;;;;;;;20.40;42.20;;;;;;5097191;28;19927;-59
2023/05/31 05:55:20;;;;;;;;;;;20.40;42.20;;;;;;5093307;28;19969;-59
2023/05/31 05:57:47;;;;;;;;;;;20.40;42.20;;;;;;5108399;28;20354;-59
2023/05/31 06:00:15;;;;;;;;;;;20.40;42.20;;;;;;5085689;28;19920;-59
2023/05/31 06:02:43;;;;;;;;;;;20.40;42.20;;;;;;5072934;28;19920;-59
2023/05/31 06:05:10;;;;;;;;;;;20.40;42.20;;;;;;5086351;28;19982;-55
2023/05/31 06:07:37;;;;;;;;;;;20.50;42.30;;;;;;5092554;28;19920;-60
2023/05/31 06:10:04;;;;;;;;;;;20.50;42.20;;;;;;5091442;28;19924;-60
2023/05/31 06:12:30;;;;;;;;;;;20.50;42.30;;;;;;5090763;28;19920;-59
2023/05/31 06:14:57;;;;;;;;;;;20.50;42.30;;;;;;5102939;28;19920;-59
2023/05/31 06:17:24;;;;;;;;;;;20.50;42.30;;;;;;5087611;28;19920;-60
2023/05/31 06:19:52;;;;;;;;;;;20.50;42.30;;;;;;5093154;28;20312;-60
2023/05/31 06:22:19;;;;;;;;;;;20.50;42.30;;;;;;5108066;28;19973;-59
2023/05/31 06:24:46;;;;;;;;;;;20.50;42.30;;;;;;5089575;28;20330;-60
2023/05/31 06:27:14;;;;;;;;;;;20.50;42.30;;;;;;5099912;28;20293;-59
2023/05/31 06:29:41;;;;;;;;;;;20.50;42.30;;;;;;5091046;28;20305;-62
2023/05/31 06:32:08;;;;;;;;;;;20.50;42.30;;;;;;5110558;28;20358;-61
2023/05/31 06:34:35;;;;;;;;;;;20.50;42.30;;;;;;5084235;28;19920;-61
2023/05/31 06:37:03;;;;;;;;;;;20.50;42.40;;;;;;5089822;28;19964;-61
2023/05/31 06:39:30;;;;;;;;;;;20.50;42.50;;;;;;5108100;28;20008;-63
2023/05/31 06:41:59;;;;;;;;;;;20.50;42.50;;;;;;5105001;28;19927;-63
2023/05/31 06:44:26;;;;;;;;;;;20.50;42.60;;;;;;5105906;28;19931;-62
2023/05/31 06:46:53;;;;;;;;;;;20.50;42.50;;;;;;5107833;28;19920;-62
2023/05/31 06:49:20;;;;;;;;;;;20.50;42.60;;;;;;5092415;28;19920;-61
2023/05/31 06:51:47;;;;;;;;;;;20.60;42.70;;;;;;5085104;28;19924;-63
2023/05/31 06:54:15;;;;;;;;;;;20.60;42.80;;;;;;5073421;28;19920;-62
2023/05/31 06:56:42;;;;;;;;;;;20.60;42.80;;;;;;5100359;28;20014;-61
2023/05/31 06:59:09;;;;;;;;;;;20.60;42.80;;;;;;5106914;28;19932;-61
2023/05/31 07:01:36;;;;;;;;;;;20.60;42.80;;;;;;5109930;28;19973;-61
2023/05/31 07:04:02;;;;;;;;;;;20.60;42.80;;;;;;5109644;28;19954;-61
2023/05/31 07:06:29;;;;;;;;;;;20.60;42.80;;;;;;5100870;28;19927;-60
2023/05/31 07:08:56;;;;;;;;;;;20.60;42.80;;;;;;5096849;28;19924;-60
2023/05/31 07:11:25;;;;;;;;;;;20.60;42.80;;;;;;5094802;28;19920;-61
2023/05/31 07:13:52;;;;;;;;;;;20.60;42.90;;;;;;5109636;28;19934;-61
2023/05/31 07:16:19;;;;;;;;;;;20.70;42.90;;;;;;5099723;28;19965;-60
2023/05/31 07:18:47;;;;;;;;;;;20.70;42.90;;;;;;5092956;28;19939;-62
2023/05/31 07:21:14;;;;;;;;;;;20.70;42.90;;;;;;5105858;28;19927;-61
2023/05/31 07:23:40;;;;;;;;;;;20.70;42.80;;;;;;5111528;27;19920;-60
2023/05/31 07:26:07;;;;;;;;;;;20.70;43.50;;;;;;5094192;28;19919;-62
2023/05/31 07:28:35;;;;;;;;;;;20.70;42.80;;;;;;5094932;28;19927;-61
2023/05/31 07:31:02;;;;;;;;;;;20.70;42.90;;;;;;5110007;28;20419;-61
2023/05/31 07:33:29;;;;;;;;;;;20.70;42.90;;;;;;5093535;28;19920;-61
2023/05/31 07:35:55;;;;;;;;;;;20.70;42.90;;;;;;5096442;28;19920;-61
2023/05/31 07:38:22;;;;;;;;;;;20.70;42.90;;;;;;5096139;28;19980;-61
2023/05/31 07:40:49;;;;;;;;;;;20.70;42.90;;;;;;5095235;28;19948;-62
2023/05/31 07:43:16;;;;;;;;;;;20.70;42.90;;;;;;5096749;28;19924;-61
2023/05/31 07:45:44;;;;;;;;;;;20.80;43.00;;;;;;5093674;28;19924;-61
2023/05/31 07:48:11;;;;;;;;;;;20.80;43.00;;;;;;5093832;28;19950;-61
2023/05/31 07:50:37;;;;;;;;;;;20.80;43.50;;;;;;5074623;28;20247;-60
2023/05/31 07:53:04;;;;;;;;;;;20.80;43.00;;;;;;5082939;28;20301;-59
2023/05/31 07:55:31;;;;;;;;;;;20.80;42.90;;;;;;5095030;28;20019;-62
2023/05/31 07:57:58;;;;;;;;;;;20.80;42.90;;;;;;5096240;28;19924;-61
2023/05/31 08:00:24;;;;;;;;;;;20.80;42.90;;;;;;5107929;28;19924;-60
2023/05/31 08:02:53;;;;;;;;;;;20.80;42.90;;;;;;5111390;28;19927;-61
2023/05/31 08:05:19;;;;;;;;;;;20.80;42.90;;;;;;5117753;27;19926;-62
2023/05/31 08:07:47;;;;;;;;;;;20.80;42.90;;;;;;5112335;28;19982;-61
2023/05/31 08:10:13;;;;;;;;;;;20.80;42.90;;;;;;5095590;28;19974;-63
2023/05/31 08:12:40;;;;;;;;;;;20.80;42.90;;;;;;5091313;28;19927;-61
2023/05/31 08:15:08;;;;;;;;;;;20.80;42.80;;;;;;5108634;28;19924;-58
2023/05/31 08:17:34;;;;;;;;;;;20.80;42.80;;;;;;5092150;28;20255;-62
2023/05/31 08:20:06;;;;;;;;;;;20.80;42.80;;;;;;5111425;28;19920;-60
2023/05/31 08:22:33;;;;;;;;;;;20.80;42.80;;;;;;5100682;28;19920;-60
2023/05/31 08:24:59;;;;;;;;;;;20.90;42.90;;;;;;5111349;28;19927;-62
2023/05/31 08:27:26;;;;;;;;;;;20.80;42.80;;;;;;5093179;28;19924;-62
2023/05/31 08:29:53;;;;;;;;;;;20.90;42.90;;;;;;5094845;28;20346;-62
2023/05/31 08:32:19;;;;;;;;;;;20.90;42.90;;;;;;5111227;28;19920;-63
2023/05/31 08:34:46;;;;;;;;;;;20.90;42.80;;;;;;5107128;28;20333;-61
2023/05/31 08:37:14;;;;;;;;;;;20.90;42.80;;;;;;5108431;28;19924;-61
2023/05/31 08:39:41;;;;;;;;;;;20.90;42.80;;;;;;5100642;28;19962;-62
2023/05/31 08:42:10;;;;;;;;;;;20.90;42.80;;;;;;5088386;28;19936;-61
2023/05/31 08:44:37;;;;;;;;;;;20.90;42.80;;;;;;5092633;28;19977;-62
2023/05/31 08:47:05;;;;;;;;;;;20.90;42.70;;;;;;5109430;28;19927;-61
2023/05/31 08:49:33;;;;;;;;;;;20.90;42.70;;;;;;5088702;28;19924;-63
2023/05/31 08:52:00;;;;;;;;;;;20.90;42.70;;;;;;5093941;28;20023;-61
2023/05/31 08:54:28;;;;;;;;;;;20.90;42.70;;;;;;5101470;28;20431;-61
2023/05/31 08:56:55;;;;;;;;;;;20.90;42.60;;;;;;5105300;28;19977;-62
2023/05/31 08:59:22;;;;;;;;;;;20.90;42.70;;;;;;5096179;28;19924;-63
2023/05/31 09:01:49;;;;;;;;;;;20.90;42.60;;;;;;5092537;28;19920;-63
2023/05/31 09:04:15;;;;;;;;;;;20.90;42.60;;;;;;5093768;28;20370;-64
2023/05/31 09:06:44;;;;;;;;;;;20.90;42.60;;;;;;5108010;28;21246;-63
2023/05/31 09:09:11;;;;;;;;;;;20.90;42.60;;;;;;5097619;28;19970;-63
2023/05/31 09:11:40;;;;;;;;;;;20.90;42.60;;;;;;5108120;28;19924;-63
2023/05/31 09:14:08;;;;;;;;;;;21.00;42.70;;;;;;5105397;28;21363;-61
2023/05/31 09:16:35;;;;;;;;;;;20.90;42.60;;;;;;5110897;28;19920;-62
2023/05/31 09:19:05;;;;;;;;;;;21.00;42.70;;;;;;5092011;28;19973;-63
2023/05/31 09:21:38;;;;;;;;;;;20.90;42.60;;;;;;5093398;28;19970;-62
2023/05/31 09:24:05;;;;;;;;;;;21.00;42.70;;;;;;5089578;28;19920;-62
2023/05/31 09:26:32;;;;;;;;;;;21.00;42.70;;;;;;5115977;27;20026;-62
2023/05/31 09:29:00;;;;;;;;;;;21.00;42.70;;;;;;5092299;28;19934;-63
2023/05/31 09:31:29;;;;;;;;;;;21.00;42.60;;;;;;5093888;28;19924;-62
2023/05/31 09:33:55;;;;;;;;;;;21.00;42.70;;;;;;5090543;28;19921;-63
2023/05/31 09:36:26;;;;;;;;;;;21.00;42.60;;;;;;5094260;28;19965;-62
2023/05/31 09:38:58;;;;;;;;;;;21.00;42.60;;;;;;5124744;27;19919;-62
2023/05/31 09:41:25;;;;;;;;;;;21.00;42.60;;;;;;5120933;27;19923;-65
2023/05/31 09:43:52;;;;;;;;;;;21.00;42.60;;;;;;5093498;28;19920;-63
2023/05/31 09:46:21;;;;;;;;;;;21.00;42.60;;;;;;5109728;28;19927;-61
2023/05/31 09:48:57;;;;;;;;;;;21.00;42.60;;;;;;5111889;28;19924;-62
2023/05/31 09:51:24;;;;;;;;;;;21.00;42.70;;;;;;5092738;28;19920;-62
2023/05/31 09:53:55;;;;;;;;;;;21.00;42.70;;;;;;5109142;28;19962;-63
2023/05/31 09:56:26;;;;;;;;;;;21.00;42.70;;;;;;5107217;28;19920;-62
2023/05/31 09:58:52;;;;;;;;;;;21.00;42.70;;;;;;5123276;27;19920;-62
2023/05/31 10:01:21;;;;;;;;;;;21.00;42.70;;;;;;5111343;28;19926;-62
2023/05/31 10:03:48;;;;;;;;;;;21.10;42.70;;;;;;5114785;28;19927;-59
2023/05/31 10:06:16;;;;;;;;;;;21.10;42.80;;;;;;5089920;28;19920;-63
2023/05/31 10:08:42;;;;;;;;;;;21.10;42.80;;;;;;5113557;28;19920;-63
2023/05/31 10:11:12;;;;;;;;;;;21.10;42.70;;;;;;5106783;28;19920;-63
2023/05/31 10:13:39;;;;;;;;;;;21.10;42.70;;;;;;5092445;28;19927;-62
2023/05/31 10:16:06;;;;;;;;;;;21.10;42.70;;;;;;5090993;28;20317;-62
2023/05/31 10:18:36;;;;;;;;;;;21.10;42.70;;;;;;5090814;28;20320;-63
2023/05/31 10:21:04;;;;;;;;;;;21.10;42.70;;;;;;5094116;28;20358;-61
2023/05/31 10:23:31;;;;;;;;;;;21.10;42.70;;;;;;5091178;28;19927;-62
2023/05/31 10:26:01;;;;;;;;;;;21.10;42.70;;;;;;5089719;28;19924;-63
2023/05/31 10:28:28;;;;;;;;;;;21.10;42.70;;;;;;5114022;28;19932;-62
2023/05/31 10:30:55;;;;;;;;;;;21.10;42.60;;;;;;5083029;28;19928;-61
2023/05/31 10:33:22;;;;;;;;;;;21.10;42.60;;;;;;5101046;28;19920;-62
2023/05/31 10:35:51;;;;;;;;;;;21.10;42.60;;;;;;5108301;28;20003;-62
2023/05/31 10:38:18;;;;;;;;;;;21.10;42.40;;;;;;5094590;28;20010;-61
2023/05/31 10:40:47;;;;;;;;;;;21.10;42.40;;;;;;5094244;28;19969;-61
2023/05/31 10:43:15;;;;;;;;;;;21.10;42.30;;;;;;5100139;28;19948;-61
2023/05/31 10:45:42;;;;;;;;;;;21.10;42.00;;;;;;5094979;28;19927;-61
2023/05/31 10:48:12;;;;;;;;;;;21.10;41.90;;;;;;5092285;28;19942;-61
2023/05/31 10:50:53;;;;;;;;;;;21.10;42.50;;;;;;5092236;28;19958;-61
2023/05/31 10:53:20;;;;;;;;;;;21.10;41.80;;;;;;5109013;28;19970;-61
2023/05/31 10:55:47;;;;;;;;;;;21.10;41.90;;;;;;5093354;28;19942;-61
2023/05/31 10:58:27;;;;;;;;;;;21.00;41.80;;;;;;5103446;28;19950;-60
2023/05/31 11:00:54;;;;;;;;;;;21.00;41.70;;;;;;5094431;28;19927;-60
2023/05/31 11:03:22;;;;;;;;;;;21.10;41.80;;;;;;5095971;28;20006;-61
2023/05/31 11:05:56;;;;;;;;;;;21.00;41.60;;;;;;5094758;28;19920;-61
2023/05/31 11:08:23;;;;;;;;;;;21.10;41.80;;;;;;5095169;28;19919;-62
2023/05/31 11:10:49;;;;;;;;;;;21.10;41.80;;;;;;5113802;28;20319;-61
2023/05/31 11:13:17;;;;;;;;;;;21.10;41.70;;;;;;5094685;28;19923;-61
2023/05/31 11:15:44;;;;;;;;;;;21.10;41.70;;;;;;5098242;28;19928;-62
2023/05/31 11:18:14;;;;;;;;;;;21.10;41.70;;;;;;5096317;28;20357;-61
2023/05/31 11:20:41;;;;;;;;;;;21.10;41.60;;;;;;5084569;28;19920;-63
2023/05/31 11:23:27;;;;;;;;;;;21.10;41.30;;;;;;5094012;28;19924;-61
2023/05/31 11:26:07;;;;;;;;;;;21.10;41.50;;;;;;5094765;28;19983;-61
2023/05/31 11:28:40;;;;;;;;;;;21.10;41.50;;;;;;5118866;27;19920;-61
2023/05/31 11:31:07;;;;;;;;;;;21.10;41.40;;;;;;5113217;28;19959;-61
2023/05/31 11:33:44;;;;;;;;;;;21.10;41.30;;;;;;5090603;28;19924;-60
2023/05/31 11:36:11;;;;;;;;;;;21.10;41.20;;;;;;5110843;28;19959;-61
2023/05/31 11:38:39;;;;;;;;;;;21.10;41.20;;;;;;5093002;28;19927;-61
2023/05/31 11:41:06;;;;;;;;;;;21.10;41.80;;;;;;5093061;28;19991;-61
2023/05/31 11:43:33;;;;;;;;;;;21.10;41.30;;;;;;5093551;28;20250;-62
2023/05/31 11:46:00;;;;;;;;;;;21.10;41.30;;;;;;5094808;28;19965;-61
2023/05/31 11:48:45;;;;;;;;;;;21.10;41.30;;;;;;5106743;28;19920;-61
2023/05/31 11:51:12;;;;;;;;;;;21.10;41.30;;;;;;5090409;28;20274;-61
2023/05/31 11:53:40;;;;;;;;;;;21.20;41.40;;;;;;5090640;28;19928;-62
2023/05/31 11:56:12;;;;;;;;;;;21.10;41.30;;;;;;5078575;28;19924;-62
2023/05/31 11:58:39;;;;;;;;;;;21.10;41.30;;;;;;5100343;28;19924;-61
2023/05/31 12:01:06;;;;;;;;;;;21.20;41.50;;;;;;5088750;28;19927;-63
2023/05/31 12:03:33;;;;;;;;;;;21.10;41.40;;;;;;5091378;28;19920;-61
2023/05/31 12:06:04;;;;;;;;;;;21.20;41.50;;;;;;5093995;28;19924;-60
2023/05/31 12:08:32;;;;;;;;;;;21.20;41.60;;;;;;5096631;28;19920;-62
2023/05/31 12:11:04;;;;;;;;;;;21.20;41.70;;;;;;5093556;28;19977;-62
2023/05/31 12:13:30;;;;;;;;;;;21.20;41.80;;;;;;5111694;28;19927;-60
2023/05/31 12:15:57;;;;;;;;;;;21.30;41.90;;;;;;5109665;28;20366;-61
2023/05/31 12:18:24;;;;;;;;;;;21.20;41.90;;;;;;5091470;28;19943;-61
2023/05/31 12:20:51;;;;;;;;;;;21.30;42.00;;;;;;5093077;28;19920;-62
2023/05/31 12:23:19;;;;;;;;;;;21.30;42.00;;;;;;5085583;28;19919;-59
2023/05/31 12:25:46;;;;;;;;;;;21.30;42.00;;;;;;5131718;27;19919;-59
2023/05/31 12:28:15;;;;;;;;;;;21.30;42.10;;;;;;5112898;28;19920;-59
2023/05/31 12:30:42;;;;;;;;;;;21.30;42.10;;;;;;5100932;28;19927;-59
2023/05/31 12:33:10;;;;;;;;;;;21.30;42.20;;;;;;5090843;28;19924;-59
2023/05/31 12:35:40;;;;;;;;;;;21.30;42.20;;;;;;5080884;28;19920;-59
2023/05/31 12:38:07;;;;;;;;;;;21.30;42.20;;;;;;5107706;28;19920;-61
2023/05/31 12:40:37;;;;;;;;;;;21.30;42.30;;;;;;5091098;28;20011;-60
2023/05/31 12:43:04;;;;;;;;;;;21.30;42.40;;;;;;5091555;28;19920;-59
2023/05/31 12:45:32;;;;;;;;;;;21.30;42.40;;;;;;5092888;28;19920;-59
2023/05/31 12:47:59;;;;;;;;;;;21.30;42.40;;;;;;5108646;28;19977;-59
2023/05/31 12:50:29;;;;;;;;;;;21.40;42.60;;;;;;5090552;28;20011;-58
2023/05/31 12:52:56;;;;;;;;;;;21.40;42.70;;;;;;5109620;28;19951;-60
2023/05/31 12:55:23;;;;;;;;;;;21.40;42.70;;;;;;5092033;28;19958;-59
2023/05/31 12:57:49;;;;;;;;;;;21.40;42.70;;;;;;5088549;28;19993;-59
2023/05/31 13:00:16;;;;;;;;;;;21.40;42.80;;;;;;5090222;28;19928;-61
2023/05/31 13:02:45;;;;;;;;;;;21.40;42.80;;;;;;5095418;28;19926;-61
2023/05/31 13:05:11;;;;;;;;;;;21.40;42.90;;;;;;5091104;28;19950;-60
2023/05/31 13:07:38;;;;;;;;;;;21.40;42.90;;;;;;5091753;28;19989;-60
2023/05/31 13:10:09;;;;;;;;;;;21.40;42.90;;;;;;5107619;28;19920;-61
2023/05/31 13:12:36;;;;;;;;;;;21.40;43.00;;;;;;5111556;28;19920;-61
2023/05/31 13:15:03;;;;;;;;;;;21.40;43.00;;;;;;5086273;28;19925;-59
2023/05/31 13:17:29;;;;;;;;;;;21.40;43.10;;;;;;5080217;28;19931;-59
2023/05/31 13:19:58;;;;;;;;;;;21.50;43.10;;;;;;5091355;28;19920;-59
2023/05/31 13:22:25;;;;;;;;;;;21.50;43.20;;;;;;5108679;28;20018;-60
2023/05/31 13:24:51;;;;;;;;;;;21.50;43.10;;;;;;5108650;28;19920;-60
2023/05/31 13:27:18;;;;;;;;;;;21.50;43.10;;;;;;5094465;28;19920;-60
2023/05/31 13:29:45;;;;;;;;;;;21.50;43.10;;;;;;5090218;28;20389;-60
2023/05/31 13:32:12;;;;;;;;;;;21.50;43.00;;;;;;5091351;28;20323;-64
2023/05/31 13:34:39;;;;;;;;;;;21.50;43.00;;;;;;5094163;28;19920;-65
2023/05/31 13:37:07;;;;;;;;;;;21.50;43.00;;;;;;5110564;28;19920;-64
2023/05/31 13:39:34;;;;;;;;;;;21.50;43.00;;;;;;5108178;28;19955;-65
2023/05/31 13:42:01;;;;;;;;;;;21.50;43.00;;;;;;5105786;28;19973;-64
2023/05/31 13:44:28;;;;;;;;;;;21.50;43.00;;;;;;5088567;28;19927;-64
2023/05/31 13:46:55;;;;;;;;;;;21.50;43.00;;;;;;5090918;28;19920;-64
2023/05/31 13:49:22;;;;;;;;;;;21.50;43.10;;;;;;5093698;28;19985;-64
2023/05/31 13:51:51;;;;;;;;;;;21.50;43.60;;;;;;5093654;28;19920;-64
2023/05/31 13:54:19;;;;;;;;;;;21.60;43.20;;;;;;5112875;27;20368;-65
2023/05/31 13:56:46;;;;;;;;;;;21.50;43.10;;;;;;5089619;28;19920;-65
2023/05/31 13:59:12;;;;;;;;;;;21.60;43.20;;;;;;5109056;28;19964;-66
2023/05/31 14:01:39;;;;;;;;;;;21.60;43.20;;;;;;5099021;28;19961;-63
2023/05/31 14:04:07;;;;;;;;;;;21.60;43.20;;;;;;5106152;28;19932;-64
2023/05/31 14:06:35;;;;;;;;;;;21.60;43.20;;;;;;5100699;28;19959;-65
2023/05/31 14:09:02;;;;;;;;;;;21.60;43.20;;;;;;5091731;28;19920;-64
2023/05/31 14:11:30;;;;;;;;;;;21.60;43.20;;;;;;5097451;28;20255;-64
2023/05/31 14:13:57;;;;;;;;;;;21.60;43.20;;;;;;5094890;28;19970;-63
2023/05/31 14:16:24;;;;;;;;;;;21.60;43.20;;;;;;5102458;28;19920;-63
2023/05/31 14:18:51;;;;;;;;;;;21.60;43.20;;;;;;5098671;28;19970;-63